sensor_id;sensor_type;location;lat;lon;timestamp;P1;durP1;ratioP1;P2;durP2;ratioP2
72771;SDS011;60894;42.544;1.516;2023-06-04T00:00:07;6.13;;;2.17;;
72771;SDS011;60894;42.544;1.516;2023-06-04T00:02:36;5.70;;;2.00;;
72771;SDS011;60894;42.544;1.516;2023-06-04T00:05:03;6.47;;;2.10;;
72771;SDS011;60894;42.544;1.516;2023-06-04T00:07:31;4.78;;;1.80;;
72771;SDS011;60894;42.544;1.516;2023-06-04T00:09:58;5.22;;;2.17;;
72771;SDS011;60894;42.544;1.516;2023-06-04T00:12:24;6.10;;;2.00;;
72771;SDS011;60894;42.544;1.516;2023-06-04T00:14:51;6.32;;;2.10;;
72771;SDS011;60894;42.544;1.516;2023-06-04T00:17:18;5.47;;;2.13;;
72771;SDS011;60894;42.544;1.516;2023-06-04T00:19:47;6.55;;;2.53;;
72771;SDS011;60894;42.544;1.516;2023-06-04T00:22:14;6.57;;;2.40;;
72771;SDS011;60894;42.544;1.516;2023-06-04T00:24:40;6.25;;;2.20;;
72771;SDS011;60894;42.544;1.516;2023-06-04T00:27:08;5.45;;;2.00;;
72771;SDS011;60894;42.544;1.516;2023-06-04T00:29:35;6.77;;;2.63;;
72771;SDS011;60894;42.544;1.516;2023-06-04T00:32:02;5.63;;;2.00;;
72771;SDS011;60894;42.544;1.516;2023-06-04T00:34:30;6.15;;;2.20;;
72771;SDS011;60894;42.544;1.516;2023-06-04T00:36:58;6.82;;;2.45;;
72771;SDS011;60894;42.544;1.516;2023-06-04T00:39:26;7.65;;;2.78;;
72771;SDS011;60894;42.544;1.516;2023-06-04T00:41:54;6.00;;;2.20;;
72771;SDS011;60894;42.544;1.516;2023-06-04T00:44:21;4.40;;;1.80;;
72771;SDS011;60894;42.544;1.516;2023-06-04T00:46:50;4.95;;;2.05;;
72771;SDS011;60894;42.544;1.516;2023-06-04T00:49:18;6.05;;;2.45;;
72771;SDS011;60894;42.544;1.516;2023-06-04T00:51:45;6.53;;;2.50;;
72771;SDS011;60894;42.544;1.516;2023-06-04T00:54:14;5.47;;;2.30;;
72771;SDS011;60894;42.544;1.516;2023-06-04T00:56:43;4.82;;;2.00;;
72771;SDS011;60894;42.544;1.516;2023-06-04T00:59:10;7.68;;;3.00;;
72771;SDS011;60894;42.544;1.516;2023-06-04T01:01:39;6.55;;;2.55;;
72771;SDS011;60894;42.544;1.516;2023-06-04T01:04:12;11.40;;;4.45;;
72771;SDS011;60894;42.544;1.516;2023-06-04T01:06:45;5.90;;;2.30;;
72771;SDS011;60894;42.544;1.516;2023-06-04T01:09:17;7.45;;;2.30;;
72771;SDS011;60894;42.544;1.516;2023-06-04T01:11:45;7.07;;;2.78;;
72771;SDS011;60894;42.544;1.516;2023-06-04T01:14:11;7.32;;;2.28;;
72771;SDS011;60894;42.544;1.516;2023-06-04T01:16:39;5.45;;;2.10;;
72771;SDS011;60894;42.544;1.516;2023-06-04T01:19:11;7.17;;;2.03;;
72771;SDS011;60894;42.544;1.516;2023-06-04T01:22:00;9.02;;;2.78;;
72771;SDS011;60894;42.544;1.516;2023-06-04T01:24:32;7.90;;;2.53;;
72771;SDS011;60894;42.544;1.516;2023-06-04T01:27:03;7.63;;;2.75;;
72771;SDS011;60894;42.544;1.516;2023-06-04T01:29:31;6.00;;;2.47;;
72771;SDS011;60894;42.544;1.516;2023-06-04T01:31:58;6.90;;;2.37;;
72771;SDS011;60894;42.544;1.516;2023-06-04T01:34:25;6.25;;;2.42;;
72771;SDS011;60894;42.544;1.516;2023-06-04T01:36:52;6.13;;;2.25;;
72771;SDS011;60894;42.544;1.516;2023-06-04T01:39:19;5.57;;;2.10;;
72771;SDS011;60894;42.544;1.516;2023-06-04T01:41:48;5.97;;;2.50;;
72771;SDS011;60894;42.544;1.516;2023-06-04T01:44:14;5.53;;;2.10;;
72771;SDS011;60894;42.544;1.516;2023-06-04T01:46:41;6.65;;;2.33;;
72771;SDS011;60894;42.544;1.516;2023-06-04T01:49:08;7.45;;;2.80;;
72771;SDS011;60894;42.544;1.516;2023-06-04T01:51:35;7.80;;;2.65;;
72771;SDS011;60894;42.544;1.516;2023-06-04T01:54:03;5.68;;;2.10;;
72771;SDS011;60894;42.544;1.516;2023-06-04T01:56:30;6.30;;;2.03;;
72771;SDS011;60894;42.544;1.516;2023-06-04T01:58:58;6.00;;;2.38;;
72771;SDS011;60894;42.544;1.516;2023-06-04T02:01:26;9.60;;;2.47;;
72771;SDS011;60894;42.544;1.516;2023-06-04T02:03:53;4.82;;;2.00;;
72771;SDS011;60894;42.544;1.516;2023-06-04T02:06:20;5.80;;;2.08;;
72771;SDS011;60894;42.544;1.516;2023-06-04T02:08:47;5.43;;;2.03;;
72771;SDS011;60894;42.544;1.516;2023-06-04T02:11:13;5.25;;;2.10;;
72771;SDS011;60894;42.544;1.516;2023-06-04T02:13:40;6.75;;;2.20;;
72771;SDS011;60894;42.544;1.516;2023-06-04T02:16:09;6.35;;;2.28;;
72771;SDS011;60894;42.544;1.516;2023-06-04T02:18:36;6.15;;;2.33;;
72771;SDS011;60894;42.544;1.516;2023-06-04T02:21:03;10.30;;;2.33;;
72771;SDS011;60894;42.544;1.516;2023-06-04T02:23:30;6.13;;;2.47;;
72771;SDS011;60894;42.544;1.516;2023-06-04T02:25:57;5.20;;;2.22;;
72771;SDS011;60894;42.544;1.516;2023-06-04T02:28:24;6.07;;;2.60;;
72771;SDS011;60894;42.544;1.516;2023-06-04T02:30:51;6.30;;;2.42;;
72771;SDS011;60894;42.544;1.516;2023-06-04T02:33:19;6.83;;;2.23;;
72771;SDS011;60894;42.544;1.516;2023-06-04T02:35:47;7.75;;;2.40;;
72771;SDS011;60894;42.544;1.516;2023-06-04T02:38:14;7.18;;;2.30;;
72771;SDS011;60894;42.544;1.516;2023-06-04T02:40:41;5.85;;;2.28;;
72771;SDS011;60894;42.544;1.516;2023-06-04T02:43:09;6.25;;;2.20;;
72771;SDS011;60894;42.544;1.516;2023-06-04T02:45:36;6.23;;;2.30;;
72771;SDS011;60894;42.544;1.516;2023-06-04T02:48:03;6.10;;;2.50;;
72771;SDS011;60894;42.544;1.516;2023-06-04T02:50:31;6.00;;;2.30;;
72771;SDS011;60894;42.544;1.516;2023-06-04T02:52:58;5.80;;;2.20;;
72771;SDS011;60894;42.544;1.516;2023-06-04T02:55:25;7.38;;;2.40;;
72771;SDS011;60894;42.544;1.516;2023-06-04T02:57:52;6.67;;;2.50;;
72771;SDS011;60894;42.544;1.516;2023-06-04T03:00:19;6.95;;;2.28;;
72771;SDS011;60894;42.544;1.516;2023-06-04T03:02:46;6.57;;;2.40;;
72771;SDS011;60894;42.544;1.516;2023-06-04T03:05:14;6.15;;;2.40;;
72771;SDS011;60894;42.544;1.516;2023-06-04T03:07:44;6.47;;;2.42;;
72771;SDS011;60894;42.544;1.516;2023-06-04T03:10:12;8.80;;;2.60;;
72771;SDS011;60894;42.544;1.516;2023-06-04T03:12:39;6.53;;;2.65;;
72771;SDS011;60894;42.544;1.516;2023-06-04T03:15:07;6.85;;;2.50;;
72771;SDS011;60894;42.544;1.516;2023-06-04T03:17:35;6.93;;;2.65;;
72771;SDS011;60894;42.544;1.516;2023-06-04T03:20:02;7.50;;;2.70;;
72771;SDS011;60894;42.544;1.516;2023-06-04T03:22:30;6.50;;;2.37;;
72771;SDS011;60894;42.544;1.516;2023-06-04T03:25:00;6.25;;;2.30;;
72771;SDS011;60894;42.544;1.516;2023-06-04T03:27:27;5.00;;;2.20;;
72771;SDS011;60894;42.544;1.516;2023-06-04T03:29:54;7.72;;;2.67;;
72771;SDS011;60894;42.544;1.516;2023-06-04T03:32:21;6.72;;;2.40;;
72771;SDS011;60894;42.544;1.516;2023-06-04T03:34:48;5.87;;;2.30;;
72771;SDS011;60894;42.544;1.516;2023-06-04T03:37:16;7.90;;;2.85;;
72771;SDS011;60894;42.544;1.516;2023-06-04T03:39:43;9.27;;;2.88;;
72771;SDS011;60894;42.544;1.516;2023-06-04T03:42:11;8.23;;;2.90;;
72771;SDS011;60894;42.544;1.516;2023-06-04T03:44:38;6.95;;;2.90;;
72771;SDS011;60894;42.544;1.516;2023-06-04T03:47:05;6.40;;;3.00;;
72771;SDS011;60894;42.544;1.516;2023-06-04T03:49:32;7.40;;;2.60;;
72771;SDS011;60894;42.544;1.516;2023-06-04T03:51:59;10.40;;;2.70;;
72771;SDS011;60894;42.544;1.516;2023-06-04T03:54:26;7.55;;;2.70;;
72771;SDS011;60894;42.544;1.516;2023-06-04T03:56:52;6.97;;;2.70;;
72771;SDS011;60894;42.544;1.516;2023-06-04T03:59:21;7.87;;;2.40;;
72771;SDS011;60894;42.544;1.516;2023-06-04T04:01:48;6.40;;;2.72;;
72771;SDS011;60894;42.544;1.516;2023-06-04T04:04:15;7.00;;;2.40;;
72771;SDS011;60894;42.544;1.516;2023-06-04T04:06:42;7.28;;;2.75;;
72771;SDS011;60894;42.544;1.516;2023-06-04T04:09:08;7.47;;;2.70;;
72771;SDS011;60894;42.544;1.516;2023-06-04T04:11:35;7.50;;;2.53;;
72771;SDS011;60894;42.544;1.516;2023-06-04T04:14:02;7.18;;;2.70;;
72771;SDS011;60894;42.544;1.516;2023-06-04T04:16:31;10.27;;;3.20;;
72771;SDS011;60894;42.544;1.516;2023-06-04T04:18:58;7.20;;;2.75;;
72771;SDS011;60894;42.544;1.516;2023-06-04T04:21:24;6.57;;;2.35;;
72771;SDS011;60894;42.544;1.516;2023-06-04T04:23:51;7.00;;;2.50;;
72771;SDS011;60894;42.544;1.516;2023-06-04T04:26:18;6.57;;;2.40;;
72771;SDS011;60894;42.544;1.516;2023-06-04T04:28:45;7.72;;;2.70;;
72771;SDS011;60894;42.544;1.516;2023-06-04T04:31:12;6.35;;;2.40;;
72771;SDS011;60894;42.544;1.516;2023-06-04T04:33:41;8.35;;;3.08;;
72771;SDS011;60894;42.544;1.516;2023-06-04T04:36:08;7.00;;;2.40;;
72771;SDS011;60894;42.544;1.516;2023-06-04T04:38:37;6.80;;;2.70;;
72771;SDS011;60894;42.544;1.516;2023-06-04T04:41:05;7.93;;;2.83;;
72771;SDS011;60894;42.544;1.516;2023-06-04T04:43:34;7.90;;;2.78;;
72771;SDS011;60894;42.544;1.516;2023-06-04T04:46:02;7.03;;;2.67;;
72771;SDS011;60894;42.544;1.516;2023-06-04T04:48:29;6.57;;;2.60;;
72771;SDS011;60894;42.544;1.516;2023-06-04T04:50:58;7.25;;;2.42;;
72771;SDS011;60894;42.544;1.516;2023-06-04T04:53:25;7.53;;;2.70;;
72771;SDS011;60894;42.544;1.516;2023-06-04T04:55:52;8.23;;;2.60;;
72771;SDS011;60894;42.544;1.516;2023-06-04T04:58:19;6.85;;;2.55;;
72771;SDS011;60894;42.544;1.516;2023-06-04T05:00:46;7.33;;;2.40;;
72771;SDS011;60894;42.544;1.516;2023-06-04T05:03:13;6.53;;;2.53;;
72771;SDS011;60894;42.544;1.516;2023-06-04T05:05:40;7.35;;;2.70;;
72771;SDS011;60894;42.544;1.516;2023-06-04T05:08:08;6.95;;;2.63;;
72771;SDS011;60894;42.544;1.516;2023-06-04T05:10:35;6.95;;;2.75;;
72771;SDS011;60894;42.544;1.516;2023-06-04T05:13:02;7.53;;;2.43;;
72771;SDS011;60894;42.544;1.516;2023-06-04T05:15:30;8.38;;;2.55;;
72771;SDS011;60894;42.544;1.516;2023-06-04T05:17:57;6.32;;;2.50;;
72771;SDS011;60894;42.544;1.516;2023-06-04T05:20:25;6.85;;;2.55;;
72771;SDS011;60894;42.544;1.516;2023-06-04T05:22:52;7.45;;;2.80;;
72771;SDS011;60894;42.544;1.516;2023-06-04T05:25:21;9.63;;;3.27;;
72771;SDS011;60894;42.544;1.516;2023-06-04T05:27:48;6.10;;;2.60;;
72771;SDS011;60894;42.544;1.516;2023-06-04T05:30:15;7.35;;;2.88;;
72771;SDS011;60894;42.544;1.516;2023-06-04T05:32:42;6.28;;;2.33;;
72771;SDS011;60894;42.544;1.516;2023-06-04T05:35:09;5.78;;;2.22;;
72771;SDS011;60894;42.544;1.516;2023-06-04T05:37:37;7.90;;;2.90;;
72771;SDS011;60894;42.544;1.516;2023-06-04T05:40:06;6.70;;;2.70;;
72771;SDS011;60894;42.544;1.516;2023-06-04T05:42:35;7.97;;;3.08;;
72771;SDS011;60894;42.544;1.516;2023-06-04T05:45:03;7.43;;;2.90;;
72771;SDS011;60894;42.544;1.516;2023-06-04T05:47:30;8.90;;;3.25;;
72771;SDS011;60894;42.544;1.516;2023-06-04T05:49:57;7.17;;;2.90;;
72771;SDS011;60894;42.544;1.516;2023-06-04T05:52:24;7.43;;;2.80;;
72771;SDS011;60894;42.544;1.516;2023-06-04T05:54:51;8.20;;;2.90;;
72771;SDS011;60894;42.544;1.516;2023-06-04T05:57:19;8.40;;;3.00;;
72771;SDS011;60894;42.544;1.516;2023-06-04T05:59:48;7.63;;;3.13;;
72771;SDS011;60894;42.544;1.516;2023-06-04T06:02:15;7.70;;;2.90;;
72771;SDS011;60894;42.544;1.516;2023-06-04T06:04:42;7.38;;;2.80;;
72771;SDS011;60894;42.544;1.516;2023-06-04T06:07:09;8.85;;;2.60;;
72771;SDS011;60894;42.544;1.516;2023-06-04T06:09:36;7.38;;;2.70;;
72771;SDS011;60894;42.544;1.516;2023-06-04T06:12:03;7.82;;;3.00;;
72771;SDS011;60894;42.544;1.516;2023-06-04T06:14:30;6.53;;;2.80;;
72771;SDS011;60894;42.544;1.516;2023-06-04T06:16:59;7.53;;;2.75;;
72771;SDS011;60894;42.544;1.516;2023-06-04T06:19:28;7.35;;;2.88;;
72771;SDS011;60894;42.544;1.516;2023-06-04T06:21:55;8.43;;;2.80;;
72771;SDS011;60894;42.544;1.516;2023-06-04T06:24:24;7.07;;;2.85;;
72771;SDS011;60894;42.544;1.516;2023-06-04T06:26:50;8.10;;;3.00;;
72771;SDS011;60894;42.544;1.516;2023-06-04T06:29:17;8.10;;;2.65;;
72771;SDS011;60894;42.544;1.516;2023-06-04T06:31:44;6.95;;;2.60;;
72771;SDS011;60894;42.544;1.516;2023-06-04T06:34:13;7.40;;;2.80;;
72771;SDS011;60894;42.544;1.516;2023-06-04T06:36:40;7.50;;;2.92;;
72771;SDS011;60894;42.544;1.516;2023-06-04T06:39:07;6.53;;;2.67;;
72771;SDS011;60894;42.544;1.516;2023-06-04T06:41:35;6.53;;;2.70;;
72771;SDS011;60894;42.544;1.516;2023-06-04T06:44:03;7.53;;;2.78;;
72771;SDS011;60894;42.544;1.516;2023-06-04T06:46:30;7.35;;;2.88;;
72771;SDS011;60894;42.544;1.516;2023-06-04T06:48:57;7.20;;;2.75;;
72771;SDS011;60894;42.544;1.516;2023-06-04T06:51:26;8.17;;;2.80;;
72771;SDS011;60894;42.544;1.516;2023-06-04T06:53:52;6.13;;;2.55;;
72771;SDS011;60894;42.544;1.516;2023-06-04T06:56:19;7.57;;;2.70;;
72771;SDS011;60894;42.544;1.516;2023-06-04T06:58:47;6.82;;;2.53;;
72771;SDS011;60894;42.544;1.516;2023-06-04T07:01:14;7.05;;;2.40;;
72771;SDS011;60894;42.544;1.516;2023-06-04T07:03:41;6.90;;;2.77;;
72771;SDS011;60894;42.544;1.516;2023-06-04T07:06:08;7.30;;;2.78;;
72771;SDS011;60894;42.544;1.516;2023-06-04T07:08:36;5.95;;;2.40;;
72771;SDS011;60894;42.544;1.516;2023-06-04T07:11:03;6.50;;;2.90;;
72771;SDS011;60894;42.544;1.516;2023-06-04T07:13:30;7.72;;;2.67;;
72771;SDS011;60894;42.544;1.516;2023-06-04T07:16:00;8.00;;;3.07;;
72771;SDS011;60894;42.544;1.516;2023-06-04T07:18:27;6.78;;;3.15;;
72771;SDS011;60894;42.544;1.516;2023-06-04T07:20:54;7.40;;;3.13;;
72771;SDS011;60894;42.544;1.516;2023-06-04T07:23:21;5.82;;;2.30;;
72771;SDS011;60894;42.544;1.516;2023-06-04T07:25:49;6.50;;;2.25;;
72771;SDS011;60894;42.544;1.516;2023-06-04T07:28:16;6.63;;;2.67;;
72771;SDS011;60894;42.544;1.516;2023-06-04T07:30:44;7.95;;;2.50;;
72771;SDS011;60894;42.544;1.516;2023-06-04T07:33:11;7.03;;;2.70;;
72771;SDS011;60894;42.544;1.516;2023-06-04T07:35:38;8.98;;;2.67;;
72771;SDS011;60894;42.544;1.516;2023-06-04T07:38:05;6.43;;;2.70;;
72771;SDS011;60894;42.544;1.516;2023-06-04T07:40:32;6.37;;;2.50;;
72771;SDS011;60894;42.544;1.516;2023-06-04T07:43:01;8.68;;;2.70;;
72771;SDS011;60894;42.544;1.516;2023-06-04T07:45:28;8.25;;;2.80;;
72771;SDS011;60894;42.544;1.516;2023-06-04T07:47:56;8.95;;;2.90;;
72771;SDS011;60894;42.544;1.516;2023-06-04T07:50:23;6.75;;;2.83;;
72771;SDS011;60894;42.544;1.516;2023-06-04T07:52:50;7.47;;;2.70;;
72771;SDS011;60894;42.544;1.516;2023-06-04T07:55:17;7.95;;;3.00;;
72771;SDS011;60894;42.544;1.516;2023-06-04T07:57:44;6.50;;;2.75;;
72771;SDS011;60894;42.544;1.516;2023-06-04T08:00:13;6.90;;;2.88;;
72771;SDS011;60894;42.544;1.516;2023-06-04T08:02:42;5.63;;;2.45;;
72771;SDS011;60894;42.544;1.516;2023-06-04T08:05:09;6.00;;;2.40;;
72771;SDS011;60894;42.544;1.516;2023-06-04T08:07:39;6.90;;;2.80;;
72771;SDS011;60894;42.544;1.516;2023-06-04T08:10:07;6.53;;;2.72;;
72771;SDS011;60894;42.544;1.516;2023-06-04T08:12:34;6.15;;;2.55;;
72771;SDS011;60894;42.544;1.516;2023-06-04T08:15:01;6.68;;;2.63;;
72771;SDS011;60894;42.544;1.516;2023-06-04T08:17:29;7.07;;;2.50;;
72771;SDS011;60894;42.544;1.516;2023-06-04T08:19:56;6.18;;;2.53;;
72771;SDS011;60894;42.544;1.516;2023-06-04T08:22:24;6.47;;;2.63;;
72771;SDS011;60894;42.544;1.516;2023-06-04T08:24:52;5.38;;;2.25;;
72771;SDS011;60894;42.544;1.516;2023-06-04T08:27:19;7.35;;;2.40;;
72771;SDS011;60894;42.544;1.516;2023-06-04T08:29:46;6.80;;;2.37;;
72771;SDS011;60894;42.544;1.516;2023-06-04T08:32:13;5.15;;;2.25;;
72771;SDS011;60894;42.544;1.516;2023-06-04T08:34:41;5.53;;;2.45;;
72771;SDS011;60894;42.544;1.516;2023-06-04T08:37:08;6.22;;;2.38;;
72771;SDS011;60894;42.544;1.516;2023-06-04T08:39:35;6.70;;;2.50;;
72771;SDS011;60894;42.544;1.516;2023-06-04T08:42:04;7.80;;;3.10;;
72771;SDS011;60894;42.544;1.516;2023-06-04T08:44:33;5.13;;;2.30;;
72771;SDS011;60894;42.544;1.516;2023-06-04T08:47:02;8.45;;;2.47;;
72771;SDS011;60894;42.544;1.516;2023-06-04T08:49:33;5.18;;;2.42;;
72771;SDS011;60894;42.544;1.516;2023-06-04T08:52:03;6.60;;;2.40;;
72771;SDS011;60894;42.544;1.516;2023-06-04T08:54:32;5.93;;;2.20;;
72771;SDS011;60894;42.544;1.516;2023-06-04T08:56:59;5.65;;;2.15;;
72771;SDS011;60894;42.544;1.516;2023-06-04T08:59:26;7.15;;;2.50;;
72771;SDS011;60894;42.544;1.516;2023-06-04T09:01:54;5.43;;;2.05;;
72771;SDS011;60894;42.544;1.516;2023-06-04T09:04:21;5.72;;;2.28;;
72771;SDS011;60894;42.544;1.516;2023-06-04T09:06:49;7.27;;;2.30;;
72771;SDS011;60894;42.544;1.516;2023-06-04T09:09:17;6.20;;;2.38;;
72771;SDS011;60894;42.544;1.516;2023-06-04T09:11:49;5.55;;;2.20;;
72771;SDS011;60894;42.544;1.516;2023-06-04T09:14:19;6.07;;;2.30;;
72771;SDS011;60894;42.544;1.516;2023-06-04T09:16:47;6.32;;;2.30;;
72771;SDS011;60894;42.544;1.516;2023-06-04T09:19:15;5.70;;;2.00;;
72771;SDS011;60894;42.544;1.516;2023-06-04T09:21:49;5.00;;;1.88;;
72771;SDS011;60894;42.544;1.516;2023-06-04T09:24:19;5.50;;;2.08;;
72771;SDS011;60894;42.544;1.516;2023-06-04T09:26:46;5.32;;;1.98;;
72771;SDS011;60894;42.544;1.516;2023-06-04T09:29:13;5.28;;;2.47;;
72771;SDS011;60894;42.544;1.516;2023-06-04T09:31:41;4.17;;;1.70;;
72771;SDS011;60894;42.544;1.516;2023-06-04T09:34:07;4.03;;;1.80;;
72771;SDS011;60894;42.544;1.516;2023-06-04T09:36:35;3.95;;;1.90;;
72771;SDS011;60894;42.544;1.516;2023-06-04T09:39:03;5.57;;;2.10;;
72771;SDS011;60894;42.544;1.516;2023-06-04T09:41:32;6.20;;;2.20;;
72771;SDS011;60894;42.544;1.516;2023-06-04T09:44:00;4.40;;;1.80;;
72771;SDS011;60894;42.544;1.516;2023-06-04T09:46:28;4.15;;;1.90;;
72771;SDS011;60894;42.544;1.516;2023-06-04T09:49:00;7.00;;;2.80;;
72771;SDS011;60894;42.544;1.516;2023-06-04T09:51:28;5.50;;;2.00;;
72771;SDS011;60894;42.544;1.516;2023-06-04T09:53:56;5.22;;;1.90;;
72771;SDS011;60894;42.544;1.516;2023-06-04T09:56:23;3.70;;;1.60;;
72771;SDS011;60894;42.544;1.516;2023-06-04T09:58:55;5.05;;;1.60;;
72771;SDS011;60894;42.544;1.516;2023-06-04T10:01:25;5.32;;;1.85;;
72771;SDS011;60894;42.544;1.516;2023-06-04T10:03:53;3.17;;;1.50;;
72771;SDS011;60894;42.544;1.516;2023-06-04T10:06:21;3.80;;;1.73;;
72771;SDS011;60894;42.544;1.516;2023-06-04T10:08:50;5.00;;;2.10;;
72771;SDS011;60894;42.544;1.516;2023-06-04T10:11:17;4.15;;;1.45;;
72771;SDS011;60894;42.544;1.516;2023-06-04T10:13:48;4.03;;;1.58;;
72771;SDS011;60894;42.544;1.516;2023-06-04T10:16:22;4.20;;;1.42;;
72771;SDS011;60894;42.544;1.516;2023-06-04T10:18:52;3.67;;;1.90;;
72771;SDS011;60894;42.544;1.516;2023-06-04T10:21:21;3.40;;;1.57;;
72771;SDS011;60894;42.544;1.516;2023-06-04T10:23:49;4.53;;;1.65;;
72771;SDS011;60894;42.544;1.516;2023-06-04T10:26:16;4.70;;;1.52;;
72771;SDS011;60894;42.544;1.516;2023-06-04T10:28:44;3.60;;;1.58;;
72771;SDS011;60894;42.544;1.516;2023-06-04T10:31:11;3.83;;;1.40;;
72771;SDS011;60894;42.544;1.516;2023-06-04T10:33:40;3.13;;;1.70;;
72771;SDS011;60894;42.544;1.516;2023-06-04T10:38:52;3.63;;;1.60;;
72771;SDS011;60894;42.544;1.516;2023-06-04T10:41:20;4.50;;;1.92;;
72771;SDS011;60894;42.544;1.516;2023-06-04T10:43:48;4.03;;;1.60;;
72771;SDS011;60894;42.544;1.516;2023-06-04T10:46:16;5.27;;;1.50;;
72771;SDS011;60894;42.544;1.516;2023-06-04T10:48:46;3.40;;;1.70;;
72771;SDS011;60894;42.544;1.516;2023-06-04T10:51:14;5.82;;;1.50;;
72771;SDS011;60894;42.544;1.516;2023-06-04T10:53:41;3.78;;;1.60;;
72771;SDS011;60894;42.544;1.516;2023-06-04T10:56:09;4.40;;;1.70;;
72771;SDS011;60894;42.544;1.516;2023-06-04T10:58:36;4.13;;;1.67;;
72771;SDS011;60894;42.544;1.516;2023-06-04T11:01:03;8.48;;;2.20;;
72771;SDS011;60894;42.544;1.516;2023-06-04T11:03:36;5.15;;;2.00;;
72771;SDS011;60894;42.544;1.516;2023-06-04T11:06:15;4.38;;;2.00;;
72771;SDS011;60894;42.544;1.516;2023-06-04T11:08:43;5.07;;;1.75;;
72771;SDS011;60894;42.544;1.516;2023-06-04T11:11:10;4.40;;;1.60;;
72771;SDS011;60894;42.544;1.516;2023-06-04T11:13:38;4.15;;;1.60;;
72771;SDS011;60894;42.544;1.516;2023-06-04T11:16:14;5.20;;;1.50;;
72771;SDS011;60894;42.544;1.516;2023-06-04T11:18:42;4.10;;;1.50;;
72771;SDS011;60894;42.544;1.516;2023-06-04T11:21:09;3.65;;;1.42;;
72771;SDS011;60894;42.544;1.516;2023-06-04T11:23:41;3.00;;;1.60;;
72771;SDS011;60894;42.544;1.516;2023-06-04T11:26:08;3.40;;;1.52;;
72771;SDS011;60894;42.544;1.516;2023-06-04T11:28:35;5.07;;;1.70;;
72771;SDS011;60894;42.544;1.516;2023-06-04T11:31:02;3.03;;;1.30;;
72771;SDS011;60894;42.544;1.516;2023-06-04T11:33:40;4.22;;;1.55;;
72771;SDS011;60894;42.544;1.516;2023-06-04T11:36:08;3.77;;;1.67;;
72771;SDS011;60894;42.544;1.516;2023-06-04T11:38:35;2.95;;;1.55;;
72771;SDS011;60894;42.544;1.516;2023-06-04T11:41:04;3.50;;;1.60;;
72771;SDS011;60894;42.544;1.516;2023-06-04T11:43:32;3.42;;;1.42;;
72771;SDS011;60894;42.544;1.516;2023-06-04T11:46:05;5.22;;;2.00;;
72771;SDS011;60894;42.544;1.516;2023-06-04T11:48:32;4.13;;;1.80;;
72771;SDS011;60894;42.544;1.516;2023-06-04T11:51:04;3.28;;;1.65;;
72771;SDS011;60894;42.544;1.516;2023-06-04T11:53:32;5.50;;;2.50;;
72771;SDS011;60894;42.544;1.516;2023-06-04T11:55:59;4.65;;;1.92;;
72771;SDS011;60894;42.544;1.516;2023-06-04T11:58:28;3.70;;;1.70;;
72771;SDS011;60894;42.544;1.516;2023-06-04T12:00:55;4.30;;;1.93;;
72771;SDS011;60894;42.544;1.516;2023-06-04T12:03:31;3.97;;;1.73;;
72771;SDS011;60894;42.544;1.516;2023-06-04T12:06:08;4.65;;;1.55;;
72771;SDS011;60894;42.544;1.516;2023-06-04T12:08:46;4.00;;;1.67;;
72771;SDS011;60894;42.544;1.516;2023-06-04T12:14:05;3.70;;;1.90;;
72771;SDS011;60894;42.544;1.516;2023-06-04T12:16:33;4.18;;;1.92;;
72771;SDS011;60894;42.544;1.516;2023-06-04T12:19:07;4.50;;;1.80;;
72771;SDS011;60894;42.544;1.516;2023-06-04T12:21:35;3.72;;;1.65;;
72771;SDS011;60894;42.544;1.516;2023-06-04T12:24:05;3.78;;;1.58;;
72771;SDS011;60894;42.544;1.516;2023-06-04T12:26:33;5.03;;;1.90;;
72771;SDS011;60894;42.544;1.516;2023-06-04T12:29:10;5.15;;;2.00;;
72771;SDS011;60894;42.544;1.516;2023-06-04T12:31:38;5.05;;;1.88;;
72771;SDS011;60894;42.544;1.516;2023-06-04T12:34:05;3.53;;;1.60;;
72771;SDS011;60894;42.544;1.516;2023-06-04T12:36:32;2.88;;;1.55;;
72771;SDS011;60894;42.544;1.516;2023-06-04T12:39:00;5.00;;;1.60;;
72771;SDS011;60894;42.544;1.516;2023-06-04T12:41:29;5.97;;;2.13;;
72771;SDS011;60894;42.544;1.516;2023-06-04T12:43:56;4.63;;;2.20;;
72771;SDS011;60894;42.544;1.516;2023-06-04T12:46:25;6.00;;;2.40;;
72771;SDS011;60894;42.544;1.516;2023-06-04T12:48:52;3.70;;;1.80;;
72771;SDS011;60894;42.544;1.516;2023-06-04T12:51:20;4.70;;;2.20;;
72771;SDS011;60894;42.544;1.516;2023-06-04T12:53:48;5.85;;;2.47;;
72771;SDS011;60894;42.544;1.516;2023-06-04T12:56:15;5.13;;;2.28;;
72771;SDS011;60894;42.544;1.516;2023-06-04T12:58:42;5.05;;;2.00;;
72771;SDS011;60894;42.544;1.516;2023-06-04T13:01:09;4.72;;;2.15;;
72771;SDS011;60894;42.544;1.516;2023-06-04T13:03:39;5.30;;;2.00;;
72771;SDS011;60894;42.544;1.516;2023-06-04T13:06:07;5.68;;;2.45;;
72771;SDS011;60894;42.544;1.516;2023-06-04T13:08:34;5.20;;;2.10;;
72771;SDS011;60894;42.544;1.516;2023-06-04T13:11:01;3.83;;;1.75;;
72771;SDS011;60894;42.544;1.516;2023-06-04T13:13:28;4.05;;;1.70;;
72771;SDS011;60894;42.544;1.516;2023-06-04T13:15:55;4.30;;;1.50;;
72771;SDS011;60894;42.544;1.516;2023-06-04T13:18:22;3.97;;;1.63;;
72771;SDS011;60894;42.544;1.516;2023-06-04T13:20:51;4.38;;;1.70;;
72771;SDS011;60894;42.544;1.516;2023-06-04T13:23:18;4.15;;;1.67;;
72771;SDS011;60894;42.544;1.516;2023-06-04T13:25:45;3.30;;;1.40;;
72771;SDS011;60894;42.544;1.516;2023-06-04T13:28:12;4.20;;;1.60;;
72771;SDS011;60894;42.544;1.516;2023-06-04T13:30:39;3.38;;;1.42;;
72771;SDS011;60894;42.544;1.516;2023-06-04T13:33:06;3.33;;;1.30;;
72771;SDS011;60894;42.544;1.516;2023-06-04T13:35:33;3.45;;;1.33;;
72771;SDS011;60894;42.544;1.516;2023-06-04T13:38:03;3.65;;;1.50;;
72771;SDS011;60894;42.544;1.516;2023-06-04T13:40:31;4.60;;;1.80;;
72771;SDS011;60894;42.544;1.516;2023-06-04T13:42:58;3.15;;;1.52;;
72771;SDS011;60894;42.544;1.516;2023-06-04T13:45:24;5.80;;;2.10;;
72771;SDS011;60894;42.544;1.516;2023-06-04T13:47:51;4.95;;;2.00;;
72771;SDS011;60894;42.544;1.516;2023-06-04T13:50:18;3.50;;;1.60;;
72771;SDS011;60894;42.544;1.516;2023-06-04T13:52:46;3.30;;;1.40;;
72771;SDS011;60894;42.544;1.516;2023-06-04T13:55:14;5.85;;;2.10;;
72771;SDS011;60894;42.544;1.516;2023-06-04T13:57:49;4.25;;;1.65;;
72771;SDS011;60894;42.544;1.516;2023-06-04T14:00:16;3.88;;;1.40;;
72771;SDS011;60894;42.544;1.516;2023-06-04T14:02:43;5.40;;;1.70;;
72771;SDS011;60894;42.544;1.516;2023-06-04T14:05:10;4.97;;;1.80;;
72771;SDS011;60894;42.544;1.516;2023-06-04T14:07:37;3.63;;;1.52;;
72771;SDS011;60894;42.544;1.516;2023-06-04T14:10:04;6.80;;;2.00;;
72771;SDS011;60894;42.544;1.516;2023-06-04T14:12:32;4.78;;;1.80;;
72771;SDS011;60894;42.544;1.516;2023-06-04T14:15:00;4.97;;;1.90;;
72771;SDS011;60894;42.544;1.516;2023-06-04T14:17:27;10.63;;;3.03;;
72771;SDS011;60894;42.544;1.516;2023-06-04T14:19:54;4.05;;;1.60;;
72771;SDS011;60894;42.544;1.516;2023-06-04T14:22:21;4.03;;;1.50;;
72771;SDS011;60894;42.544;1.516;2023-06-04T14:24:48;4.13;;;1.60;;
72771;SDS011;60894;42.544;1.516;2023-06-04T14:27:14;3.00;;;1.40;;
72771;SDS011;60894;42.544;1.516;2023-06-04T14:29:41;3.70;;;1.67;;
72771;SDS011;60894;42.544;1.516;2023-06-04T14:32:10;4.03;;;1.60;;
72771;SDS011;60894;42.544;1.516;2023-06-04T14:34:37;5.35;;;1.80;;
72771;SDS011;60894;42.544;1.516;2023-06-04T14:37:04;4.15;;;1.90;;
72771;SDS011;60894;42.544;1.516;2023-06-04T14:39:30;3.17;;;1.43;;
72771;SDS011;60894;42.544;1.516;2023-06-04T14:41:57;4.25;;;1.60;;
72771;SDS011;60894;42.544;1.516;2023-06-04T14:44:24;4.32;;;1.88;;
72771;SDS011;60894;42.544;1.516;2023-06-04T14:46:51;4.43;;;1.83;;
72771;SDS011;60894;42.544;1.516;2023-06-04T14:49:19;4.15;;;1.73;;
72771;SDS011;60894;42.544;1.516;2023-06-04T14:51:46;3.53;;;1.53;;
72771;SDS011;60894;42.544;1.516;2023-06-04T14:54:13;4.65;;;1.77;;
72771;SDS011;60894;42.544;1.516;2023-06-04T14:56:40;4.22;;;1.50;;